Time;durP1;ratioP1;P1;durP2;ratioP2;P2;SDS_P1;SDS_P2;PMS_P1;PMS_P2;Temp;Humidity;BMP_temperature;BMP_pressure;BME280_temperature;BME280_humidity;BME280_pressure;Samples;Min_cycle;Max_cycle;Signal;HPM_P1;HPM_P2
2022/05/01 00:00:48;;;;;;;16.85;10.57;;;5.60;99.90;;;;;;5045982;28;20065;-86
2022/05/01 00:06:04;;;;;;;16.17;11.23;;;5.60;99.90;;;;;;5052921;28;20048;-86
2022/05/01 00:08:31;;;;;;;15.68;10.18;;;5.50;99.90;;;;;;5057609;28;20056;-86
2022/05/01 00:10:57;;;;;;;18.45;10.68;;;5.50;99.90;;;;;;5055781;28;20091;-86
2022/05/01 00:13:24;;;;;;;19.02;11.60;;;5.40;99.90;;;;;;5031568;28;20097;-87
2022/05/01 00:15:50;;;;;;;18.80;11.27;;;5.40;99.90;;;;;;5051312;28;20037;-87
2022/05/01 00:18:16;;;;;;;17.10;11.15;;;5.40;99.90;;;;;;5039754;28;20044;-86
2022/05/01 00:20:42;;;;;;;17.95;10.20;;;5.40;99.90;;;;;;5061013;28;20422;-86
2022/05/01 00:23:08;;;;;;;16.10;10.25;;;5.30;99.90;;;;;;5061023;28;20040;-86
2022/05/01 00:25:35;;;;;;;17.35;10.82;;;5.30;99.90;;;;;;5038899;28;20043;-86
2022/05/01 00:28:00;;;;;;;15.60;10.77;;;5.30;99.90;;;;;;5033511;28;20387;-86
2022/05/01 00:30:26;;;;;;;15.73;10.40;;;5.30;99.90;;;;;;5040693;28;20099;-86
2022/05/01 00:38:21;;;;;;;16.30;10.98;;;5.90;99.90;;;;;;5046339;28;20128;-86
2022/05/01 00:40:47;;;;;;;15.70;10.18;;;5.20;99.90;;;;;;5062750;28;20185;-86
2022/05/01 00:43:13;;;;;;;18.85;11.27;;;5.20;99.90;;;;;;5026539;28;20037;-87
2022/05/01 00:45:39;;;;;;;16.08;10.52;;;5.20;99.90;;;;;;5060059;28;20482;-87
2022/05/01 00:48:05;;;;;;;16.80;10.70;;;5.20;99.90;;;;;;5030125;28;20028;-87
2022/05/01 00:50:32;;;;;;;16.00;10.68;;;5.20;99.90;;;;;;5067698;28;20115;-87
2022/05/01 00:52:59;;;;;;;16.52;10.77;;;5.20;99.90;;;;;;5030548;28;20056;-86
2022/05/01 00:55:25;;;;;;;17.73;10.90;;;5.20;99.90;;;;;;5059719;28;20029;-86
2022/05/01 00:57:50;;;;;;;15.48;10.55;;;6.00;99.90;;;;;;5040950;28;20059;-86
2022/05/01 01:00:20;;;;;;;15.50;10.30;;;5.10;99.90;;;;;;5028604;28;20029;-86
2022/05/01 01:02:47;;;;;;;16.02;10.60;;;5.20;99.90;;;;;;5020672;28;20106;-86
2022/05/01 01:05:13;;;;;;;16.83;10.50;;;5.10;99.90;;;;;;5040958;28;20040;-86
2022/05/01 01:07:40;;;;;;;15.90;10.38;;;5.10;99.90;;;;;;5044559;28;20040;-86
2022/05/01 01:10:06;;;;;;;15.85;9.98;;;5.10;99.90;;;;;;5066409;28;20045;-86
2022/05/01 01:15:17;;;;;;;16.35;10.73;;;5.00;99.90;;;;;;5051889;28;20071;-86
2022/05/01 01:17:43;;;;;;;17.35;10.25;;;4.90;99.90;;;;;;5023918;28;20031;-86
2022/05/01 01:20:17;;;;;;;17.58;10.38;;;4.80;99.90;;;;;;5066433;28;20047;-86
2022/05/01 01:22:45;;;;;;;17.20;10.88;;;4.80;99.90;;;;;;5049358;28;20032;-86
2022/05/01 01:25:11;;;;;;;18.05;10.90;;;4.80;99.90;;;;;;5047647;28;20037;-86
2022/05/01 01:27:38;;;;;;;17.33;11.00;;;4.90;99.90;;;;;;5045857;28;20404;-86
2022/05/01 01:32:50;;;;;;;17.15;10.45;;;4.70;99.90;;;;;;5042291;28;20032;-86
2022/05/01 01:35:19;;;;;;;19.92;11.40;;;4.90;99.90;;;;;;5037250;28;20505;-86
2022/05/01 01:37:46;;;;;;;15.75;9.75;;;4.60;99.90;;;;;;5030796;28;20039;-86
2022/05/01 01:40:30;;;;;;;18.17;11.15;;;4.60;99.90;;;;;;5040608;28;20127;-86
2022/05/01 01:42:57;;;;;;;16.27;10.63;;;4.60;99.90;;;;;;5046820;28;20478;-86
2022/05/01 01:45:28;;;;;;;15.57;10.20;;;4.70;99.90;;;;;;5056121;28;20039;-86
2022/05/01 01:48:10;;;;;;;16.92;10.65;;;4.50;99.90;;;;;;5044098;28;20091;-86
2022/05/01 01:50:36;;;;;;;17.40;10.35;;;4.50;99.90;;;;;;5045458;28;20075;-86
2022/05/01 01:53:02;;;;;;;15.85;9.93;;;4.50;99.90;;;;;;5048383;28;20071;-85
2022/05/01 01:55:31;;;;;;;17.13;10.55;;;4.40;99.90;;;;;;5058664;28;20615;-86
2022/05/01 01:57:56;;;;;;;17.75;11.70;;;4.40;99.90;;;;;;5065534;28;20033;-86
2022/05/01 02:00:22;;;;;;;17.55;10.93;;;4.40;99.90;;;;;;5059243;28;20051;-85
2022/05/01 02:02:48;;;;;;;16.95;11.15;;;4.60;99.90;;;;;;5049369;28;20405;-86
2022/05/01 02:05:13;;;;;;;17.45;11.15;;;5.00;99.90;;;;;;5040963;28;20059;-86
2022/05/01 02:07:39;;;;;;;18.52;11.40;;;4.50;99.90;;;;;;5029837;28;20047;-86
2022/05/01 02:10:06;;;;;;;18.52;11.70;;;4.30;99.90;;;;;;5035941;28;20041;-86
2022/05/01 02:12:33;;;;;;;18.42;10.80;;;4.30;99.90;;;;;;5041568;28;20040;-86
2022/05/01 02:15:00;;;;;;;16.95;10.75;;;4.30;99.90;;;;;;5048737;28;20156;-86
2022/05/01 02:17:25;;;;;;;16.58;10.52;;;4.20;99.90;;;;;;5060729;28;20037;-86
2022/05/01 02:19:51;;;;;;;19.92;11.77;;;4.20;99.90;;;;;;5026056;28;20127;-86
2022/05/01 02:22:17;;;;;;;16.63;10.80;;;4.20;99.90;;;;;;5038422;28;20548;-86
2022/05/01 02:24:42;;;;;;;17.42;10.57;;;5.40;99.90;;;;;;5024872;28;20602;-86
2022/05/01 02:27:09;;;;;;;19.58;11.88;;;4.70;99.90;;;;;;5030524;28;20517;-86
2022/05/01 02:29:34;;;;;;;17.98;11.55;;;5.10;99.90;;;;;;5030533;28;20051;-86
2022/05/01 02:32:00;;;;;;;17.60;11.75;;;4.90;99.90;;;;;;5029721;28;20041;-86
2022/05/01 02:34:26;;;;;;;17.60;12.30;;;4.10;99.90;;;;;;5038227;28;20060;-85
2022/05/01 02:36:52;;;;;;;18.55;11.23;;;4.20;99.90;;;;;;5030681;28;20040;-86
2022/05/01 02:39:18;;;;;;;19.38;11.70;;;4.10;99.90;;;;;;5050189;28;20041;-85
2022/05/01 02:41:44;;;;;;;18.27;11.27;;;4.10;99.90;;;;;;5044360;28;20037;-86
2022/05/01 02:44:10;;;;;;;17.10;11.45;;;4.10;99.90;;;;;;5029353;28;20043;-86
2022/05/01 02:46:37;;;;;;;18.27;10.63;;;4.10;99.90;;;;;;5037138;28;20111;-86
2022/05/01 02:49:04;;;;;;;17.13;10.95;;;4.20;99.90;;;;;;5044772;28;20044;-86
2022/05/01 02:51:31;;;;;;;22.42;12.35;;;5.20;99.90;;;;;;5021903;28;20233;-85
2022/05/01 02:53:58;;;;;;;19.52;12.27;;;4.10;99.90;;;;;;5054226;28;20229;-85
2022/05/01 02:56:25;;;;;;;19.80;12.43;;;4.10;99.90;;;;;;5051286;28;20033;-85
2022/05/01 02:58:50;;;;;;;27.90;13.05;;;4.70;99.90;;;;;;5035365;28;20040;-86
2022/05/01 03:01:16;;;;;;;21.85;13.75;;;4.20;99.90;;;;;;5036608;28;20078;-85
2022/05/01 03:03:42;;;;;;;48.53;15.18;;;4.20;99.90;;;;;;5058701;28;20043;-86
2022/05/01 03:06:08;;;;;;;272.95;22.17;;;4.20;99.90;;;;;;5032997;28;20072;-85
2022/05/01 03:08:34;;;;;;;758.67;42.20;;;4.80;99.90;;;;;;5049730;28;20551;-86
2022/05/01 03:11:01;;;;;;;239.70;20.45;;;4.10;99.90;;;;;;5048655;28;20058;-85
2022/05/01 03:13:28;;;;;;;71.05;14.40;;;4.20;99.90;;;;;;5066907;28;20043;-86
2022/05/01 03:15:53;;;;;;;24.25;12.40;;;4.10;99.90;;;;;;5047573;28;20048;-86
2022/05/01 03:23:49;;;;;;;26.90;12.85;;;3.60;99.90;;;;;;5058243;28;20048;-85
2022/05/01 03:26:18;;;;;;;27.00;13.77;;;4.50;99.90;;;;;;5059160;28;20044;-85
2022/05/01 03:28:45;;;;;;;23.45;12.25;;;5.40;99.90;;;;;;5068188;28;20044;-85
2022/05/01 03:31:12;;;;;;;24.67;12.77;;;4.00;99.90;;;;;;5055608;28;20083;-85
2022/05/01 03:33:38;;;;;;;18.27;12.20;;;4.00;99.90;;;;;;5042262;28;20041;-85
2022/05/01 03:36:06;;;;;;;21.58;12.80;;;4.20;99.90;;;;;;5028131;28;20044;-85
2022/05/01 03:38:34;;;;;;;21.77;13.82;;;4.00;99.90;;;;;;5057689;28;20262;-85
2022/05/01 03:41:01;;;;;;;21.63;12.48;;;4.80;99.90;;;;;;5061051;28;20052;-85
2022/05/01 03:43:27;;;;;;;21.67;12.32;;;3.90;99.90;;;;;;5044815;28;20044;-85
2022/05/01 03:45:52;;;;;;;22.88;12.48;;;3.90;99.90;;;;;;5026879;28;20057;-85
2022/05/01 03:48:18;;;;;;;23.35;13.00;;;4.30;99.90;;;;;;5042077;28;20068;-86
2022/05/01 03:50:44;;;;;;;20.83;12.45;;;4.90;99.90;;;;;;5025961;28;20036;-85
2022/05/01 03:53:09;;;;;;;17.30;11.45;;;3.90;99.90;;;;;;5032509;28;20093;-85
2022/05/01 03:55:36;;;;;;;18.05;11.05;;;5.10;99.90;;;;;;5012205;28;20085;-85
2022/05/01 03:58:03;;;;;;;15.25;9.52;;;3.80;99.90;;;;;;5029986;28;20455;-85
2022/05/01 04:00:29;;;;;;;15.10;9.52;;;3.60;99.90;;;;;;5061632;28;20511;-85
2022/05/01 04:02:55;;;;;;;13.93;8.90;;;3.60;99.90;;;;;;5038944;28;20040;-85
2022/05/01 04:05:21;;;;;;;13.68;7.80;;;4.10;99.90;;;;;;5038206;28;20139;-85
2022/05/01 04:07:47;;;;;;;13.73;8.00;;;3.50;99.90;;;;;;5029670;28;20084;-85
2022/05/01 04:10:13;;;;;;;13.00;7.80;;;3.50;99.90;;;;;;5048522;28;20141;-85
2022/05/01 04:12:40;;;;;;;13.43;8.15;;;3.40;99.90;;;;;;5025885;28;20141;-85
2022/05/01 04:15:07;;;;;;;14.20;8.65;;;3.60;99.90;;;;;;5024921;28;20041;-86
2022/05/01 04:17:38;;;;;;;14.38;8.68;;;3.40;99.90;;;;;;5056419;28;20098;-86
2022/05/01 04:20:08;;;;;;;34.15;10.73;;;3.40;99.90;;;;;;5031860;28;20110;-85
2022/05/01 04:22:41;;;;;;;24.17;11.63;;;3.40;99.90;;;;;;5041181;28;20049;-85
2022/05/01 04:25:14;;;;;;;47.92;13.25;;;3.40;99.90;;;;;;5060409;28;20037;-86
2022/05/01 04:27:40;;;;;;;23.73;12.48;;;3.50;99.90;;;;;;5056297;28;20040;-85
2022/05/01 04:30:06;;;;;;;32.85;12.32;;;3.50;99.90;;;;;;5034031;28;20536;-86
2022/05/01 04:32:32;;;;;;;23.77;11.70;;;3.60;99.90;;;;;;5020601;28;20059;-86
2022/05/01 04:34:58;;;;;;;30.45;13.43;;;3.60;99.90;;;;;;5043523;28;20493;-85
2022/05/01 04:37:25;;;;;;;162.68;17.50;;;3.70;99.90;;;;;;5049399;28;20109;-85
2022/05/01 04:39:50;;;;;;;46.17;14.50;;;3.80;99.90;;;;;;5028069;28;20047;-85
2022/05/01 04:42:17;;;;;;;36.33;14.23;;;3.80;99.90;;;;;;5042696;28;20040;-85
2022/05/01 04:44:43;;;;;;;28.15;13.38;;;3.80;99.90;;;;;;5009493;28;20155;-85
2022/05/01 04:47:08;;;;;;;27.00;13.68;;;4.30;99.90;;;;;;5021779;28;20132;-85
2022/05/01 04:49:35;;;;;;;38.58;13.60;;;4.20;99.90;;;;;;5031352;28;20040;-85
2022/05/01 04:52:01;;;;;;;35.30;14.40;;;4.00;99.90;;;;;;5007008;28;21469;-85
2022/05/01 04:54:27;;;;;;;32.60;15.45;;;4.00;99.90;;;;;;5034198;28;20078;-85
2022/05/01 04:57:09;;;;;;;47.63;16.38;;;4.90;99.90;;;;;;5047441;28;20064;-85
2022/05/01 04:59:37;;;;;;;37.80;14.38;;;5.20;99.90;;;;;;5039686;28;20153;-85
2022/05/01 05:02:03;;;;;;;35.78;16.45;;;4.20;99.90;;;;;;5049846;28;20052;-85
2022/05/01 05:04:29;;;;;;;26.52;13.98;;;4.30;99.90;;;;;;5057884;28;20211;-85
2022/05/01 05:06:55;;;;;;;23.40;14.18;;;4.60;99.90;;;;;;5027992;28;20109;-85
2022/05/01 05:12:07;;;;;;;23.05;15.82;;;6.00;99.90;;;;;;5056639;28;20055;-85
2022/05/01 05:14:33;;;;;;;22.10;14.43;;;4.70;99.90;;;;;;5029620;28;20041;-85
2022/05/01 05:17:00;;;;;;;23.95;16.17;;;4.80;99.90;;;;;;5011818;28;20045;-85
2022/05/01 05:19:26;;;;;;;23.15;16.15;;;5.90;99.90;;;;;;5029983;28;20067;-85
2022/05/01 05:21:52;;;;;;;22.08;14.73;;;5.10;99.90;;;;;;5059334;28;20040;-85
2022/05/01 05:24:18;;;;;;;23.02;15.45;;;5.80;99.90;;;;;;5049087;28;20146;-85
2022/05/01 05:26:45;;;;;;;21.58;14.85;;;5.50;99.90;;;;;;5038200;28;20375;-85
2022/05/01 05:29:11;;;;;;;23.63;14.38;;;6.00;99.90;;;;;;5061552;28;20481;-85
2022/05/01 05:31:36;;;;;;;19.17;13.48;;;6.00;99.90;;;;;;5046200;28;20052;-85
2022/05/01 05:34:02;;;;;;;19.33;13.10;;;5.90;99.90;;;;;;5041889;28;20401;-85
2022/05/01 05:36:28;;;;;;;19.15;12.77;;;5.70;99.90;;;;;;5054247;28;20028;-85
2022/05/01 05:38:53;;;;;;;16.80;11.77;;;6.80;99.90;;;;;;5052016;28;20041;-85
2022/05/01 05:41:19;;;;;;;18.42;12.52;;;6.50;99.90;;;;;;5037453;28;20045;-85
2022/05/01 05:43:45;;;;;;;20.27;12.45;;;6.00;99.90;;;;;;5010825;28;20068;-85
2022/05/01 05:46:10;;;;;;;18.60;12.75;;;7.40;99.90;;;;;;5042955;28;20045;-85
2022/05/01 05:48:37;;;;;;;18.63;12.27;;;6.20;99.90;;;;;;5042419;28;20059;-84
2022/05/01 05:51:04;;;;;;;18.60;12.73;;;6.30;99.90;;;;;;5031053;28;20072;-85
2022/05/01 05:53:30;;;;;;;18.27;12.90;;;6.40;99.90;;;;;;5059239;28;20037;-85
2022/05/01 05:55:56;;;;;;;19.52;13.43;;;6.50;99.90;;;;;;5036771;28;20082;-85
2022/05/01 05:58:21;;;;;;;18.83;12.52;;;6.60;99.90;;;;;;5023667;28;20484;-84
2022/05/01 06:00:47;;;;;;;18.90;12.98;;;6.90;99.90;;;;;;5027570;28;20037;-85
2022/05/01 06:03:13;;;;;;;17.10;12.52;;;6.90;99.90;;;;;;5027245;28;20116;-85
2022/05/01 06:05:39;;;;;;;17.65;11.85;;;7.80;99.90;;;;;;5063272;28;20036;-86
2022/05/01 06:08:04;;;;;;;20.27;12.55;;;7.10;99.90;;;;;;5057802;28;20048;-85
2022/05/01 06:10:31;;;;;;;19.52;12.50;;;7.30;99.90;;;;;;5021483;28;20040;-86
2022/05/01 06:12:56;;;;;;;16.88;11.20;;;7.40;99.90;;;;;;5038647;28;20379;-85
2022/05/01 06:15:22;;;;;;;17.45;11.35;;;7.60;99.90;;;;;;5029563;28;20047;-85
2022/05/01 06:17:50;;;;;;;16.63;11.18;;;7.60;99.90;;;;;;5026303;28;20044;-85
2022/05/01 06:20:15;;;;;;;17.25;11.25;;;7.80;99.90;;;;;;5021649;28;20534;-86
2022/05/01 06:22:41;;;;;;;16.33;10.20;;;8.10;99.90;;;;;;5032492;28;20036;-85
2022/05/01 06:25:07;;;;;;;14.93;9.85;;;8.00;99.90;;;;;;5039555;28;20048;-86
2022/05/01 06:27:34;;;;;;;17.20;9.93;;;8.10;99.90;;;;;;5057153;28;20221;-86
2022/05/01 06:30:00;;;;;;;14.70;9.77;;;8.30;99.90;;;;;;5054006;28;20130;-85
2022/05/01 06:32:26;;;;;;;14.77;9.18;;;8.30;99.90;;;;;;5030720;28;20490;-86
2022/05/01 06:34:52;;;;;;;14.98;8.95;;;8.30;99.90;;;;;;5043926;28;20063;-86
2022/05/01 06:37:18;;;;;;;15.80;9.30;;;8.30;99.90;;;;;;5035952;28;20485;-86
2022/05/01 06:39:44;;;;;;;13.40;8.15;;;8.50;99.90;;;;;;5039844;28;20049;-86
2022/05/01 06:42:10;;;;;;;15.70;8.73;;;8.40;99.90;;;;;;5050724;28;20045;-86
2022/05/01 06:44:36;;;;;;;14.45;8.23;;;8.40;99.90;;;;;;5024638;28;20037;-86
2022/05/01 06:47:02;;;;;;;14.40;9.50;;;8.40;99.90;;;;;;5043834;28;20041;-88
2022/05/01 06:49:28;;;;;;;13.80;8.63;;;8.50;99.90;;;;;;5025223;28;20489;-83
2022/05/01 06:51:53;;;;;;;13.95;9.35;;;8.60;99.90;;;;;;5043164;28;20036;-85
2022/05/01 06:54:19;;;;;;;13.38;8.63;;;8.80;99.90;;;;;;5045222;28;20040;-87
2022/05/01 06:56:45;;;;;;;15.32;8.85;;;8.90;99.90;;;;;;5048947;28;20033;-86
2022/05/01 06:59:11;;;;;;;14.00;8.10;;;9.10;99.90;;;;;;5046663;28;20052;-86
2022/05/01 07:01:37;;;;;;;12.82;8.32;;;9.30;99.90;;;;;;5032995;28;20099;-86
2022/05/01 07:04:02;;;;;;;14.43;7.25;;;9.40;99.90;;;;;;5041046;28;20044;-85
2022/05/01 07:06:28;;;;;;;14.25;7.93;;;9.50;99.90;;;;;;5041494;28;20052;-86
2022/05/01 07:08:54;;;;;;;13.25;8.07;;;9.60;99.90;;;;;;5024885;28;20138;-85
2022/05/01 07:11:20;;;;;;;13.20;7.03;;;9.90;99.90;;;;;;5049760;28;20043;-86
2022/05/01 07:13:45;;;;;;;12.75;6.97;;;9.90;99.90;;;;;;5045188;28;21469;-86
2022/05/01 07:16:11;;;;;;;13.68;6.72;;;10.00;99.90;;;;;;5038002;28;20088;-86
2022/05/01 07:18:37;;;;;;;10.80;5.80;;;10.20;99.90;;;;;;5029203;28;20060;-87
2022/05/01 07:21:02;;;;;;;10.98;5.57;;;10.20;99.90;;;;;;5031934;28;20232;-86
2022/05/01 07:23:28;;;;;;;9.95;5.10;;;10.40;99.90;;;;;;5032927;28;20124;-86
2022/05/01 07:25:54;;;;;;;11.70;5.15;;;10.50;99.90;;;;;;5034377;28;20044;-88
2022/05/01 07:28:20;;;;;;;9.32;4.13;;;10.80;99.90;;;;;;5034775;28;20055;-86
2022/05/01 07:30:45;;;;;;;10.82;5.55;;;10.50;99.90;;;;;;5031882;28;20040;-86
2022/05/01 07:33:11;;;;;;;11.48;5.03;;;10.60;99.90;;;;;;5044736;28;20044;-86
2022/05/01 07:35:37;;;;;;;10.55;5.20;;;10.70;99.90;;;;;;5032752;28;20050;-86
2022/05/01 07:38:03;;;;;;;10.80;4.53;;;10.80;99.90;;;;;;5032440;28;20037;-86
2022/05/01 07:40:29;;;;;;;9.38;4.03;;;10.90;99.90;;;;;;5033045;28;20040;-87
2022/05/01 07:42:55;;;;;;;11.15;4.90;;;10.80;99.90;;;;;;5043594;28;20153;-87
2022/05/01 07:45:21;;;;;;;10.55;4.80;;;11.00;99.90;;;;;;5039798;28;20040;-86
2022/05/01 07:47:46;;;;;;;10.98;4.93;;;11.20;99.90;;;;;;5026693;28;20540;-86
2022/05/01 07:50:12;;;;;;;10.43;4.60;;;11.40;99.90;;;;;;5052123;28;20125;-87
2022/05/01 07:52:38;;;;;;;11.38;4.57;;;11.50;99.90;;;;;;5054448;28;20036;-87
2022/05/01 07:55:05;;;;;;;10.93;4.75;;;11.40;99.90;;;;;;5031890;28;20438;-86
2022/05/01 07:57:31;;;;;;;10.38;4.90;;;11.40;99.90;;;;;;5026000;28;20028;-87
2022/05/01 07:59:57;;;;;;;10.50;4.78;;;11.20;99.90;;;;;;5051893;28;20053;-87
2022/05/01 08:02:22;;;;;;;10.23;4.90;;;11.40;99.90;;;;;;5035817;28;20028;-86
2022/05/01 08:04:48;;;;;;;9.90;4.55;;;11.60;99.90;;;;;;5043118;28;20041;-87
2022/05/01 08:07:17;;;;;;;9.25;4.03;;;11.20;99.90;;;;;;5045845;28;20048;-86
2022/05/01 08:09:43;;;;;;;9.00;3.13;;;11.30;99.90;;;;;;5031768;28;20052;-85
2022/05/01 08:12:09;;;;;;;9.23;3.88;;;11.30;99.90;;;;;;5031833;28;20055;-87
2022/05/01 08:14:35;;;;;;;10.07;4.00;;;10.80;99.90;;;;;;5010812;28;20060;-87
2022/05/01 08:17:00;;;;;;;8.93;4.10;;;10.60;99.90;;;;;;5056272;28;20044;-87
2022/05/01 08:22:10;;;;;;;10.30;3.75;;;10.60;99.90;;;;;;5046841;28;20522;-87
2022/05/01 08:24:36;;;;;;;9.10;4.05;;;10.60;99.90;;;;;;5037128;28;20037;-86
2022/05/01 08:27:05;;;;;;;10.35;4.25;;;10.70;99.90;;;;;;5039467;28;20041;-87
2022/05/01 08:29:36;;;;;;;9.23;3.92;;;11.00;99.90;;;;;;5042820;28;20064;-87
2022/05/01 08:32:05;;;;;;;11.70;3.90;;;11.20;99.90;;;;;;5036374;28;20121;-87
2022/05/01 08:34:31;;;;;;;9.27;4.32;;;11.50;99.90;;;;;;5023381;28;20039;-86
2022/05/01 08:36:56;;;;;;;9.48;3.97;;;11.80;99.90;;;;;;5030461;28;20040;-87
2022/05/01 08:39:22;;;;;;;9.70;3.92;;;12.00;99.90;;;;;;5030339;28;20040;-86
2022/05/01 08:41:48;;;;;;;9.43;3.72;;;12.20;99.90;;;;;;5042498;28;20040;-85
2022/05/01 08:44:14;;;;;;;9.27;4.00;;;12.40;99.90;;;;;;5040831;28;20059;-87
2022/05/01 08:47:00;;;;;;;8.30;3.38;;;12.60;99.90;;;;;;5030846;28;21268;-88
2022/05/01 08:49:28;;;;;;;9.20;4.00;;;12.70;99.90;;;;;;5040978;28;20114;-85
2022/05/01 08:51:54;;;;;;;9.38;4.15;;;12.90;99.90;;;;;;5037231;28;20033;-87
2022/05/01 08:54:22;;;;;;;8.65;3.78;;;12.80;99.90;;;;;;5048489;28;20039;-87
2022/05/01 08:56:48;;;;;;;9.13;4.35;;;12.70;99.90;;;;;;5040924;28;20036;-85
2022/05/01 08:59:15;;;;;;;9.02;3.72;;;12.40;99.90;;;;;;5056905;28;20036;-86
2022/05/01 09:01:43;;;;;;;8.35;3.63;;;12.30;99.90;;;;;;5023851;28;20658;-86
2022/05/01 09:04:12;;;;;;;9.82;4.30;;;12.20;99.90;;;;;;5046852;28;20443;-86
2022/05/01 09:06:39;;;;;;;8.55;4.00;;;12.10;99.90;;;;;;5037211;28;20079;-86
2022/05/01 09:09:18;;;;;;;9.00;3.97;;;12.10;99.90;;;;;;5038646;28;20053;-88
2022/05/01 09:14:29;;;;;;;9.00;3.55;;;12.10;99.90;;;;;;5064446;28;20032;-87
2022/05/01 09:17:14;;;;;;;8.00;3.40;;;12.50;99.90;;;;;;5024448;28;20033;-86
2022/05/01 09:19:44;;;;;;;8.93;3.78;;;12.80;99.90;;;;;;5053785;28;20043;-87
2022/05/01 09:22:11;;;;;;;8.77;3.88;;;13.10;99.90;;;;;;5026161;28;20148;-88
2022/05/01 09:24:37;;;;;;;9.88;4.20;;;13.30;99.90;;;;;;5060916;28;20098;-86
2022/05/01 09:27:03;;;;;;;9.15;4.03;;;13.40;99.90;;;;;;5026218;28;20395;-86
2022/05/01 09:29:32;;;;;;;8.95;3.88;;;13.60;99.90;;;;;;5032353;28;20048;-86
2022/05/01 09:32:00;;;;;;;9.05;3.83;;;13.70;99.90;;;;;;5022334;28;20452;-87
2022/05/01 09:34:31;;;;;;;8.85;3.80;;;13.80;99.90;;;;;;5029609;28;20033;-86
2022/05/01 09:36:59;;;;;;;10.13;3.92;;;13.80;99.90;;;;;;5048155;28;20047;-86
2022/05/01 09:39:31;;;;;;;9.50;4.00;;;13.90;99.90;;;;;;5023548;28;20101;-86
2022/05/01 09:42:14;;;;;;;8.50;3.70;;;13.80;99.90;;;;;;5046029;28;20103;-86
2022/05/01 09:44:39;;;;;;;8.38;3.63;;;13.90;99.90;;;;;;5042041;28;20024;-86
2022/05/01 09:47:07;;;;;;;8.98;3.70;;;14.00;99.90;;;;;;5057515;28;20417;-87
2022/05/01 09:49:49;;;;;;;8.60;3.75;;;14.10;99.90;;;;;;5042882;28;20029;-87
2022/05/01 09:52:15;;;;;;;8.55;3.42;;;14.10;99.90;;;;;;5033062;28;20033;-86
2022/05/01 09:55:00;;;;;;;9.80;3.90;;;14.20;99.90;;;;;;5045104;28;20094;-87
2022/05/01 09:57:25;;;;;;;9.20;3.50;;;14.20;99.90;;;;;;5037261;28;20049;-88
2022/05/01 09:59:51;;;;;;;8.68;3.58;;;14.40;99.90;;;;;;5031253;28;20524;-87
2022/05/01 10:02:28;;;;;;;10.55;3.85;;;14.50;99.90;;;;;;5025725;28;20061;-87
2022/05/01 10:04:56;;;;;;;8.77;3.72;;;14.60;99.90;;;;;;5020902;28;20433;-87
2022/05/01 10:07:25;;;;;;;8.95;3.60;;;14.70;99.90;;;;;;5056044;28;20453;-89
2022/05/01 10:09:52;;;;;;;8.82;3.80;;;14.70;99.90;;;;;;5025660;28;20064;-88
2022/05/01 10:12:19;;;;;;;8.88;3.65;;;14.70;99.90;;;;;;5035336;28;20066;-89
2022/05/01 10:14:45;;;;;;;8.07;3.58;;;14.70;99.90;;;;;;5068833;28;20612;-88
2022/05/01 10:17:11;;;;;;;8.20;3.50;;;14.70;99.90;;;;;;5029677;28;20041;-88
2022/05/01 10:19:38;;;;;;;9.70;3.70;;;14.90;99.90;;;;;;5024232;28;20033;-88
2022/05/01 10:22:05;;;;;;;7.97;3.38;;;15.00;99.90;;;;;;5031615;28;20040;-88
2022/05/01 10:24:33;;;;;;;10.00;3.65;;;15.00;99.90;;;;;;5044523;28;20044;-89
2022/05/01 10:27:17;;;;;;;10.25;4.10;;;15.00;99.90;;;;;;5069053;28;20083;-88
2022/05/01 10:33:04;;;;;;;8.60;3.45;;;15.10;99.90;;;;;;5063047;28;20063;-88
2022/05/01 10:35:57;;;;;;;8.38;3.40;;;14.90;99.90;;;;;;5057181;28;20043;-88
2022/05/01 10:38:26;;;;;;;10.87;3.90;;;14.90;99.90;;;;;;5067774;28;20037;-88
2022/05/01 10:40:57;;;;;;;9.02;3.70;;;14.80;99.90;;;;;;5059049;28;20289;-88
2022/05/01 10:43:28;;;;;;;9.70;3.38;;;14.90;99.90;;;;;;5051202;28;20040;-89
2022/05/01 10:45:59;;;;;;;10.55;4.20;;;15.00;99.90;;;;;;5043097;28;20116;-89
2022/05/01 10:48:38;;;;;;;7.97;3.45;;;15.20;99.90;;;;;;5034770;28;20123;-87
2022/05/01 10:51:36;;;;;;;8.32;3.70;;;15.20;99.90;;;;;;5043879;28;20041;-90
2022/05/01 10:54:17;;;;;;;9.77;3.83;;;15.10;99.90;;;;;;5049840;28;20041;-88
2022/05/01 10:56:48;;;;;;;11.68;3.65;;;15.10;99.90;;;;;;5034172;28;20037;-87
2022/05/01 10:59:29;;;;;;;8.98;3.78;;;15.20;99.90;;;;;;5057575;28;20466;-88
2022/05/01 11:02:04;;;;;;;9.52;3.80;;;15.70;99.90;;;;;;5040037;28;20042;-88
2022/05/01 11:04:38;;;;;;;9.93;3.80;;;15.80;99.90;;;;;;5023204;28;20033;-88
2022/05/01 11:07:05;;;;;;;8.07;3.47;;;15.90;99.90;;;;;;5058840;28;20036;-87
2022/05/01 11:09:35;;;;;;;8.77;3.60;;;15.80;99.90;;;;;;5034445;28;20114;-88
2022/05/01 11:12:02;;;;;;;8.45;3.33;;;15.50;99.90;;;;;;5062521;28;20521;-88
2022/05/01 11:14:38;;;;;;;8.82;3.88;;;15.30;99.90;;;;;;5030359;28;20036;-89
2022/05/01 11:17:04;;;;;;;8.77;3.55;;;15.20;99.90;;;;;;5033929;28;20433;-88
2022/05/01 11:19:42;;;;;;;8.63;3.60;;;15.10;99.90;;;;;;5047153;28;20146;-89
2022/05/01 11:22:08;;;;;;;7.32;3.22;;;15.00;99.90;;;;;;5067893;28;20071;-89
2022/05/01 11:24:42;;;;;;;8.23;3.60;;;15.00;99.90;;;;;;5046443;28;20068;-90
2022/05/01 11:27:11;;;;;;;9.82;3.92;;;14.70;99.90;;;;;;5040062;28;20041;-89
2022/05/01 11:29:37;;;;;;;9.18;4.00;;;14.50;99.90;;;;;;5043372;28;20122;-88
2022/05/01 11:32:23;;;;;;;8.80;3.80;;;14.10;99.90;;;;;;5032798;28;20043;-89
2022/05/01 11:34:55;;;;;;;8.52;3.65;;;13.90;99.90;;;;;;5045100;28;20041;-88
2022/05/01 11:37:22;;;;;;;9.32;3.70;;;13.80;99.90;;;;;;5031398;28;20056;-88
2022/05/01 11:39:51;;;;;;;8.48;3.80;;;13.80;99.90;;;;;;5037790;28;20516;-88
2022/05/01 11:42:25;;;;;;;10.55;4.20;;;13.70;99.90;;;;;;5060417;28;20041;-89
2022/05/01 11:44:56;;;;;;;9.35;3.78;;;13.80;99.90;;;;;;5039337;28;20366;-89
2022/05/01 11:47:31;;;;;;;9.18;4.03;;;13.80;99.90;;;;;;5060807;28;20201;-88
2022/05/01 11:49:57;;;;;;;8.38;3.70;;;13.80;99.90;;;;;;5069278;28;20040;-87
2022/05/01 11:52:24;;;;;;;10.93;3.53;;;13.90;99.90;;;;;;5031725;28;20164;-87
2022/05/01 11:54:55;;;;;;;8.68;3.60;;;13.90;99.90;;;;;;5059742;28;20040;-89
2022/05/01 12:02:57;;;;;;;9.27;4.20;;;13.90;99.90;;;;;;5056264;28;20056;-88
2022/05/01 12:05:23;;;;;;;8.02;3.50;;;14.00;99.90;;;;;;5045658;28;20516;-89
2022/05/01 12:07:56;;;;;;;10.43;3.53;;;14.10;99.90;;;;;;5055128;28;20401;-88
2022/05/01 12:10:26;;;;;;;10.55;3.60;;;14.10;99.90;;;;;;5045522;28;20040;-91
2022/05/01 12:12:52;;;;;;;8.40;3.40;;;14.20;99.90;;;;;;5038601;28;20441;-90
2022/05/01 12:15:19;;;;;;;8.20;3.30;;;14.20;99.90;;;;;;5034134;28;21515;-90
2022/05/01 12:17:44;;;;;;;7.72;3.20;;;14.30;99.90;;;;;;5044128;28;20105;-90
2022/05/01 12:20:11;;;;;;;9.10;3.10;;;14.30;99.90;;;;;;5049940;28;20044;-90
2022/05/01 12:22:37;;;;;;;8.13;3.20;;;14.40;99.90;;;;;;5051363;28;20036;-89
2022/05/01 12:25:10;;;;;;;7.68;3.10;;;14.50;99.90;;;;;;5037545;28;20040;-91
2022/05/01 12:27:40;;;;;;;8.15;3.50;;;14.50;99.90;;;;;;5042711;28;20041;-89
2022/05/01 12:30:07;;;;;;;8.70;3.88;;;14.50;99.90;;;;;;5050379;28;20389;-89
2022/05/01 12:32:33;;;;;;;10.38;3.78;;;14.50;99.90;;;;;;5023708;28;20043;-89
2022/05/01 12:35:01;;;;;;;9.70;3.53;;;14.40;99.90;;;;;;5056140;28;20028;-91
2022/05/01 12:37:37;;;;;;;8.95;3.70;;;14.40;99.90;;;;;;5041019;28;20029;-91
2022/05/01 12:40:10;;;;;;;8.60;3.78;;;14.50;99.90;;;;;;5038013;28;20045;-89
2022/05/01 12:45:48;;;;;;;10.05;3.60;;;14.70;99.90;;;;;;5056391;28;20056;-90
2022/05/01 12:48:14;;;;;;;9.45;3.30;;;14.80;99.90;;;;;;5038800;28;20120;-90
2022/05/01 12:50:45;;;;;;;8.63;3.75;;;14.90;99.90;;;;;;5024888;28;20519;-90
2022/05/01 12:53:27;;;;;;;8.18;3.40;;;15.10;99.90;;;;;;5026407;28;20392;-89
2022/05/01 12:55:54;;;;;;;8.02;3.40;;;15.30;99.90;;;;;;5039930;28;20068;-90
2022/05/01 12:58:47;;;;;;;8.20;3.70;;;15.60;99.90;;;;;;5031903;28;20044;-89
2022/05/01 13:01:27;;;;;;;7.88;3.28;;;15.70;99.90;;;;;;5070368;28;20059;-89
2022/05/01 13:03:53;;;;;;;8.68;3.50;;;15.60;99.90;;;;;;5069287;28;20629;-91
2022/05/01 13:06:20;;;;;;;8.40;3.35;;;15.80;99.90;;;;;;5070520;28;20044;-89
2022/05/01 13:08:52;;;;;;;8.52;3.45;;;15.80;99.90;;;;;;5053819;28;20084;-91
2022/05/01 13:11:27;;;;;;;9.88;3.55;;;15.90;99.90;;;;;;5062150;28;20366;-90
2022/05/01 13:13:57;;;;;;;8.10;3.42;;;16.00;99.90;;;;;;5052434;28;20040;-90
2022/05/01 13:16:31;;;;;;;8.30;3.70;;;16.00;99.90;;;;;;5048781;28;20116;-91
2022/05/01 13:19:09;;;;;;;8.27;3.78;;;15.70;99.90;;;;;;5054147;28;20549;-89
2022/05/01 13:21:38;;;;;;;7.82;3.47;;;15.50;99.90;;;;;;5070371;28;20044;-89
2022/05/01 13:24:05;;;;;;;8.85;3.88;;;15.30;99.90;;;;;;5068614;28;20051;-90